createdAt,value
2018-07-17T00:00:44.088Z,16.76
2018-07-17T00:01:44.123Z,16.70
2018-07-17T00:02:44.164Z,16.73
2018-07-17T00:03:44.304Z,16.71
2018-07-17T00:04:44.240Z,16.73
2018-07-17T00:05:44.287Z,16.71
2018-07-17T00:06:44.319Z,16.70
2018-07-17T00:07:44.357Z,16.71
2018-07-17T00:08:44.397Z,16.70
2018-07-17T00:09:44.485Z,16.70
2018-07-17T00:10:44.475Z,16.70
2018-07-17T00:11:44.513Z,16.70
2018-07-17T00:12:44.604Z,16.71
2018-07-17T00:13:44.593Z,16.71
2018-07-17T00:14:44.634Z,16.75
2018-07-17T00:15:44.667Z,16.75
2018-07-17T00:16:44.706Z,16.67
2018-07-17T00:17:44.744Z,16.63
2018-07-17T00:18:44.782Z,16.52
2018-07-17T00:19:44.824Z,16.61
2018-07-17T00:20:44.861Z,16.57
2018-07-17T00:21:44.899Z,16.56
2018-07-17T00:22:44.945Z,16.56
2018-07-17T00:23:44.978Z,16.46
2018-07-17T00:24:45.016Z,16.48
2018-07-17T00:25:45.060Z,16.52
2018-07-17T00:26:45.092Z,16.50
2018-07-17T00:27:45.142Z,16.43
2018-07-17T00:28:45.172Z,16.43
2018-07-17T00:29:45.208Z,16.45
2018-07-17T00:30:45.251Z,16.41
2018-07-17T00:31:45.287Z,16.43
2018-07-17T00:32:45.332Z,16.46
2018-07-17T00:33:45.363Z,16.42
2018-07-17T00:34:45.402Z,16.39
2018-07-17T00:35:45.440Z,16.41
2018-07-17T00:36:45.478Z,16.34
2018-07-17T00:37:45.518Z,16.27
2018-07-17T00:38:45.556Z,16.31
2018-07-17T00:39:45.595Z,16.20
2018-07-17T00:40:45.634Z,16.15
2018-07-17T00:41:45.671Z,16.12
2018-07-17T00:42:45.711Z,16.15
2018-07-17T00:43:45.750Z,16.15
2018-07-17T00:44:45.787Z,16.09
2018-07-17T00:45:45.824Z,16.09
2018-07-17T00:46:45.863Z,16.04
2018-07-17T00:47:45.900Z,16.07
2018-07-17T00:48:45.942Z,16.04
2018-07-17T00:49:45.979Z,16.08
2018-07-17T00:50:46.018Z,16.08
2018-07-17T00:51:46.056Z,16.09
2018-07-17T00:52:46.095Z,16.07
2018-07-17T00:53:46.132Z,16.04
2018-07-17T00:54:46.171Z,15.97
2018-07-17T00:55:46.283Z,15.97
2018-07-17T00:56:46.248Z,15.94
2018-07-17T00:57:46.285Z,16.01
2018-07-17T00:58:46.326Z,15.97
2018-07-17T00:59:46.364Z,15.94
2018-07-17T01:00:46.400Z,15.83
2018-07-17T01:01:46.439Z,15.83
2018-07-17T01:02:46.477Z,15.83
2018-07-17T01:03:46.516Z,15.87
2018-07-17T01:04:46.560Z,15.72
2018-07-17T01:05:46.593Z,15.75
2018-07-17T01:06:46.632Z,15.78
2018-07-17T01:07:46.671Z,15.71
2018-07-17T01:08:46.713Z,15.76
2018-07-17T01:09:46.750Z,15.82
2018-07-17T01:10:46.784Z,15.75
2018-07-17T01:11:46.825Z,15.82
2018-07-17T01:12:46.872Z,15.69
2018-07-17T01:13:46.900Z,15.75
2018-07-17T01:14:46.939Z,15.68
2018-07-17T01:15:46.978Z,15.71
2018-07-17T01:16:47.014Z,15.76
2018-07-17T01:17:47.052Z,15.78
2018-07-17T01:18:47.093Z,15.64
2018-07-17T01:19:47.138Z,15.65
2018-07-17T01:20:47.169Z,15.68
2018-07-17T01:21:47.207Z,15.67
2018-07-17T01:22:47.244Z,15.64
2018-07-17T01:23:47.282Z,15.67
2018-07-17T01:24:47.320Z,15.56
2018-07-17T01:25:47.357Z,15.64
2018-07-17T01:26:47.396Z,15.51
2018-07-17T01:27:47.443Z,15.64
2018-07-17T01:28:47.474Z,15.68
2018-07-17T01:29:47.512Z,15.65
2018-07-17T01:30:47.552Z,15.64
2018-07-17T01:31:47.589Z,15.60
2018-07-17T01:32:47.628Z,15.62
2018-07-17T01:33:47.665Z,15.60
2018-07-17T01:34:47.701Z,15.59
2018-07-17T01:35:47.742Z,15.51
2018-07-17T01:36:47.780Z,15.53
2018-07-17T01:37:47.818Z,15.39
2018-07-17T01:38:47.855Z,15.39
2018-07-17T01:39:47.894Z,15.34
2018-07-17T01:40:47.932Z,15.36
2018-07-17T01:41:47.969Z,15.35
2018-07-17T01:42:48.008Z,15.34
2018-07-17T01:43:48.053Z,15.35
2018-07-17T01:44:48.084Z,15.41
2018-07-17T01:45:48.124Z,15.50
2018-07-17T01:46:48.164Z,15.44
2018-07-17T01:47:48.199Z,15.44
2018-07-17T01:48:48.237Z,15.56
2018-07-17T01:49:48.277Z,15.47
2018-07-17T01:50:48.314Z,15.41
2018-07-17T01:51:48.351Z,15.44
2018-07-17T01:52:48.392Z,15.43
2018-07-17T01:53:48.425Z,15.38
2018-07-17T01:54:48.464Z,15.35
2018-07-17T01:55:48.505Z,15.38
2018-07-17T01:56:48.541Z,15.32
2018-07-17T01:57:48.578Z,15.34
2018-07-17T01:58:48.618Z,15.39
2018-07-17T01:59:48.655Z,15.38
2018-07-17T02:00:48.693Z,15.27
2018-07-17T02:01:48.731Z,15.28
2018-07-17T02:02:48.768Z,15.34
2018-07-17T02:03:48.807Z,15.25
2018-07-17T02:04:48.859Z,15.27
2018-07-17T02:05:48.883Z,15.25
2018-07-17T02:06:48.921Z,15.25
2018-07-17T02:07:48.960Z,15.25
2018-07-17T02:08:49.000Z,15.21
2018-07-17T02:09:49.035Z,15.25
2018-07-17T02:10:49.074Z,15.25
2018-07-17T02:11:49.112Z,15.25
2018-07-17T02:12:49.158Z,15.17
2018-07-17T02:13:49.185Z,15.19
2018-07-17T02:14:49.227Z,15.23
2018-07-17T02:15:49.266Z,15.16
2018-07-17T02:16:49.302Z,15.13
2018-07-17T02:17:49.342Z,15.13
2018-07-17T02:18:49.439Z,15.10
2018-07-17T02:19:49.414Z,15.11
2018-07-17T02:20:49.452Z,15.01
2018-07-17T02:21:49.489Z,15.02
2018-07-17T02:22:49.529Z,15.07
2018-07-17T02:23:49.564Z,15.03
2018-07-17T02:24:49.605Z,14.99
2018-07-17T02:25:49.641Z,15.06
2018-07-17T02:26:49.733Z,15.03
2018-07-17T02:27:49.718Z,14.99
2018-07-17T02:28:49.756Z,15.06
2018-07-17T02:29:49.791Z,15.02
2018-07-17T02:30:49.831Z,15.01
2018-07-17T02:31:49.868Z,14.99
2018-07-17T02:32:49.907Z,15.01
2018-07-17T02:33:49.945Z,14.99
2018-07-17T02:34:49.983Z,15.02
2018-07-17T02:35:50.028Z,14.99
2018-07-17T02:36:50.057Z,15.09
2018-07-17T02:37:50.098Z,15.11
2018-07-17T02:38:50.136Z,15.11
2018-07-17T02:39:50.171Z,15.13
2018-07-17T02:40:50.209Z,15.02
2018-07-17T02:41:50.246Z,15.09
2018-07-17T02:42:50.285Z,15.13
2018-07-17T02:43:50.323Z,15.03
2018-07-17T02:44:50.366Z,15.01
2018-07-17T02:45:50.400Z,14.98
2018-07-17T02:46:50.446Z,15.01
2018-07-17T02:47:50.476Z,15.01
2018-07-17T02:48:50.516Z,14.94
2018-07-17T02:49:50.549Z,14.89
2018-07-17T02:50:50.590Z,14.84
2018-07-17T02:51:50.627Z,14.84
2018-07-17T02:52:50.667Z,14.80
2018-07-17T02:53:50.699Z,14.83
2018-07-17T02:54:50.740Z,14.75
2018-07-17T02:55:50.779Z,14.73
2018-07-17T02:56:50.813Z,14.80
2018-07-17T02:57:50.853Z,14.65
2018-07-17T02:58:50.889Z,14.60
2018-07-17T02:59:50.944Z,14.75
2018-07-17T03:00:50.984Z,14.68
2018-07-17T03:01:51.003Z,14.62
2018-07-17T03:02:51.041Z,14.68
2018-07-17T03:03:51.079Z,14.70
2018-07-17T03:04:51.117Z,14.65
2018-07-17T03:05:51.153Z,14.62
2018-07-17T03:06:51.206Z,14.69
2018-07-17T03:07:51.229Z,14.68
2018-07-17T03:08:51.267Z,14.72
2018-07-17T03:09:51.309Z,14.64
2018-07-17T03:10:51.343Z,14.65
2018-07-17T03:11:51.385Z,14.68
2018-07-17T03:12:51.421Z,14.58
2018-07-17T03:13:51.461Z,14.52
2018-07-17T03:14:51.496Z,14.54
2018-07-17T03:15:51.536Z,14.50
2018-07-17T03:16:51.576Z,14.57
2018-07-17T03:17:51.609Z,14.55
2018-07-17T03:18:51.645Z,14.50
2018-07-17T03:19:51.686Z,14.47
2018-07-17T03:20:51.721Z,14.51
2018-07-17T03:21:51.759Z,14.54
2018-07-17T03:22:51.793Z,14.50
2018-07-17T03:23:51.834Z,14.54
2018-07-17T03:24:51.872Z,14.42
2018-07-17T03:25:51.908Z,14.54
2018-07-17T03:26:51.946Z,14.51
2018-07-17T03:27:51.984Z,14.52
2018-07-17T03:28:52.023Z,14.45
2018-07-17T03:29:52.062Z,14.57
2018-07-17T03:30:52.098Z,14.50
2018-07-17T03:31:52.136Z,14.50
2018-07-17T03:32:52.175Z,14.55
2018-07-17T03:33:52.212Z,14.47
2018-07-17T03:34:52.248Z,14.51
2018-07-17T03:35:52.289Z,14.54
2018-07-17T03:36:52.326Z,14.57
2018-07-17T03:37:52.361Z,14.54
2018-07-17T03:38:52.399Z,14.64
2018-07-17T03:39:52.442Z,14.58
2018-07-17T03:40:52.536Z,14.69
2018-07-17T03:41:52.513Z,14.64
2018-07-17T03:42:52.552Z,14.70
2018-07-17T03:43:52.591Z,14.68
2018-07-17T03:44:52.628Z,14.72
2018-07-17T03:45:52.664Z,14.70
2018-07-17T03:46:52.702Z,14.73
2018-07-17T03:47:52.740Z,14.75
2018-07-17T03:48:52.785Z,14.72
2018-07-17T03:49:52.821Z,14.65
2018-07-17T03:50:52.857Z,14.70
2018-07-17T03:51:52.892Z,14.77
2018-07-17T03:52:52.927Z,14.64
2018-07-17T03:53:52.981Z,14.69
2018-07-17T03:54:53.004Z,14.75
2018-07-17T03:55:53.042Z,14.75
2018-07-17T03:56:53.085Z,14.88
2018-07-17T03:57:53.119Z,14.88
2018-07-17T03:58:53.154Z,14.86
2018-07-17T03:59:53.197Z,14.89
2018-07-17T04:00:53.229Z,14.98
2018-07-17T04:01:53.266Z,15.02
2018-07-17T04:02:53.320Z,14.98
2018-07-17T04:03:53.343Z,15.03
2018-07-17T04:04:53.431Z,15.06
2018-07-17T04:05:53.418Z,15.09
2018-07-17T04:06:53.463Z,15.03
2018-07-17T04:07:53.494Z,15.03
2018-07-17T04:08:53.532Z,15.06
2018-07-17T04:09:53.570Z,14.99
2018-07-17T04:10:53.607Z,15.10
2018-07-17T04:11:53.646Z,15.13
2018-07-17T04:12:53.683Z,15.10
2018-07-17T04:13:53.719Z,15.19
2018-07-17T04:14:53.758Z,15.13
2018-07-17T04:15:53.797Z,15.21
2018-07-17T04:16:53.834Z,15.17
2018-07-17T04:17:53.871Z,15.17
2018-07-17T04:18:53.910Z,15.25
2018-07-17T04:19:53.950Z,15.14
2018-07-17T04:20:53.987Z,15.27
2018-07-17T04:21:54.026Z,15.27
2018-07-17T04:22:54.062Z,15.29
2018-07-17T04:23:54.100Z,15.32
2018-07-17T04:24:54.139Z,15.27
2018-07-17T04:25:54.176Z,15.31
2018-07-17T04:26:54.212Z,15.21
2018-07-17T04:27:54.251Z,15.28
2018-07-17T04:28:54.289Z,15.21
2018-07-17T04:29:54.352Z,15.29
2018-07-17T04:30:54.420Z,15.35
2018-07-17T04:31:54.526Z,15.31
2018-07-17T04:32:54.441Z,15.36
2018-07-17T04:33:54.479Z,15.31
2018-07-17T04:34:54.516Z,15.31
2018-07-17T04:35:54.555Z,15.29
2018-07-17T04:36:54.592Z,15.35
2018-07-17T04:37:54.631Z,15.28
2018-07-17T04:38:54.667Z,15.32
2018-07-17T04:39:54.709Z,15.34
2018-07-17T04:40:54.746Z,15.36
2018-07-17T04:41:54.784Z,15.41
2018-07-17T04:42:54.820Z,15.51
2018-07-17T04:43:54.859Z,15.47
2018-07-17T04:44:54.898Z,15.49
2018-07-17T04:45:54.933Z,15.54
2018-07-17T04:46:54.973Z,15.53
2018-07-17T04:47:55.012Z,15.57
2018-07-17T04:48:55.050Z,15.60
2018-07-17T04:49:55.089Z,15.57
2018-07-17T04:50:55.128Z,15.59
2018-07-17T04:51:55.215Z,15.60
2018-07-17T04:52:55.203Z,15.60
2018-07-17T04:53:55.262Z,15.59
2018-07-17T04:54:55.280Z,15.59
2018-07-17T04:55:55.318Z,15.71
2018-07-17T04:56:55.356Z,15.68
2018-07-17T04:57:55.393Z,15.74
2018-07-17T04:58:55.431Z,15.71
2018-07-17T04:59:55.471Z,15.67
2018-07-17T05:00:55.508Z,15.80
2018-07-17T05:01:55.601Z,15.84
2018-07-17T05:02:55.584Z,15.86
2018-07-17T05:03:55.624Z,15.78
2018-07-17T05:04:55.661Z,15.86
2018-07-17T05:05:55.698Z,16.00
2018-07-17T05:06:55.739Z,16.05
2018-07-17T05:07:55.775Z,15.97
2018-07-17T05:08:55.814Z,16.07
2018-07-17T05:09:55.852Z,16.17
2018-07-17T05:10:55.889Z,16.17
2018-07-17T05:11:55.928Z,16.20
2018-07-17T05:12:55.981Z,16.28
2018-07-17T05:13:56.004Z,16.25
2018-07-17T05:14:56.041Z,16.39
2018-07-17T05:15:56.081Z,16.35
2018-07-17T05:16:56.124Z,16.42
2018-07-17T05:17:56.158Z,16.43
2018-07-17T05:18:56.197Z,16.48
2018-07-17T05:19:56.240Z,16.48
2018-07-17T05:20:56.273Z,16.46
2018-07-17T05:21:56.312Z,16.50
2018-07-17T05:22:56.380Z,16.50
2018-07-17T05:23:56.387Z,16.57
2018-07-17T05:24:56.426Z,16.61
2018-07-17T05:25:56.467Z,16.63
2018-07-17T05:26:56.503Z,16.71
2018-07-17T05:27:56.541Z,16.70
2018-07-17T05:28:56.654Z,16.89
2018-07-17T05:29:56.620Z,16.88
2018-07-17T05:30:56.656Z,17.06
2018-07-17T05:31:56.695Z,17.16
2018-07-17T05:32:56.735Z,17.44
2018-07-17T05:33:56.776Z,17.55
2018-07-17T05:34:56.811Z,17.66
2018-07-17T05:35:56.849Z,17.56
2018-07-17T05:36:56.900Z,17.44
2018-07-17T05:37:56.926Z,17.46
2018-07-17T05:38:56.966Z,17.55
2018-07-17T05:39:57.005Z,17.55
2018-07-17T05:40:57.042Z,17.52
2018-07-17T05:41:57.081Z,17.48
2018-07-17T05:42:57.120Z,17.48
2018-07-17T05:43:57.161Z,17.52
2018-07-17T05:44:57.197Z,17.56
2018-07-17T05:45:57.240Z,17.55
2018-07-17T05:46:57.284Z,17.66
2018-07-17T05:47:57.314Z,17.58
2018-07-17T05:48:57.353Z,17.59
2018-07-17T05:49:57.393Z,17.68
2018-07-17T05:50:57.440Z,17.71
2018-07-17T05:51:57.522Z,17.77
2018-07-17T05:52:57.511Z,17.75
2018-07-17T05:53:57.546Z,17.89
2018-07-17T05:54:57.587Z,17.96
2018-07-17T05:55:57.628Z,17.96
2018-07-17T05:56:57.666Z,17.89
2018-07-17T05:57:57.704Z,17.96
2018-07-17T05:58:57.741Z,18.03
2018-07-17T05:59:57.787Z,18.14
2018-07-17T06:00:57.820Z,18.18
2018-07-17T06:01:57.861Z,18.23
2018-07-17T06:02:57.903Z,18.32
2018-07-17T06:03:57.939Z,18.42
2018-07-17T06:04:57.977Z,18.48
2018-07-17T06:05:58.015Z,18.57
2018-07-17T06:06:58.060Z,18.54
2018-07-17T06:07:58.094Z,18.72
2018-07-17T06:08:58.134Z,18.75
2018-07-17T06:09:58.174Z,18.84
2018-07-17T06:10:58.213Z,18.90
2018-07-17T06:11:58.259Z,18.98
2018-07-17T06:12:58.291Z,18.99
2018-07-17T06:13:58.330Z,18.95
2018-07-17T06:14:58.371Z,18.95
2018-07-17T06:15:58.411Z,18.95
2018-07-17T06:16:58.449Z,19.07
2018-07-17T06:17:58.489Z,19.13
2018-07-17T06:18:58.554Z,19.21
2018-07-17T06:19:58.595Z,19.18
2018-07-17T06:20:58.622Z,19.31
2018-07-17T06:21:58.666Z,19.41
2018-07-17T06:22:58.690Z,19.41
2018-07-17T06:23:58.728Z,19.48
2018-07-17T06:24:58.780Z,19.46
2018-07-17T06:25:58.811Z,19.66
2018-07-17T06:26:58.847Z,19.62
2018-07-17T06:27:58.888Z,19.76
2018-07-17T06:28:58.926Z,19.88
2018-07-17T06:29:58.965Z,19.96
2018-07-17T06:30:59.010Z,20.01
2018-07-17T06:31:59.051Z,20.14
2018-07-17T06:32:59.151Z,20.01
2018-07-17T06:33:59.133Z,20.13
2018-07-17T06:34:59.177Z,20.24
2018-07-17T06:35:59.206Z,20.24
2018-07-17T06:36:59.245Z,20.36
2018-07-17T06:37:59.322Z,20.43
2018-07-17T06:38:59.326Z,20.58
2018-07-17T06:39:59.367Z,20.69
2018-07-17T06:40:59.407Z,20.79
2018-07-17T06:41:59.448Z,20.77
2018-07-17T06:42:59.490Z,20.72
2018-07-17T06:43:59.527Z,20.88
2018-07-17T06:44:59.568Z,20.91
2018-07-17T06:45:59.608Z,20.88
2018-07-17T06:46:59.647Z,20.99
2018-07-17T06:47:59.689Z,21.07
2018-07-17T06:48:59.730Z,21.17
2018-07-17T06:49:59.768Z,21.17
2018-07-17T06:50:59.812Z,21.25
2018-07-17T06:51:59.853Z,21.35
2018-07-17T06:52:59.893Z,21.38
2018-07-17T06:53:59.931Z,21.44
2018-07-17T06:54:59.975Z,21.42
2018-07-17T06:56:00.017Z,21.46
2018-07-17T06:57:00.079Z,21.46
2018-07-17T06:58:00.096Z,21.47
2018-07-17T06:59:00.145Z,21.40
2018-07-17T07:00:00.180Z,21.40
2018-07-17T07:01:00.220Z,21.40
2018-07-17T07:02:00.260Z,21.40
2018-07-17T07:03:00.301Z,21.47
2018-07-17T07:04:00.342Z,21.52
2018-07-17T07:05:00.384Z,21.47
2018-07-17T07:06:00.423Z,21.53
2018-07-17T07:07:00.465Z,21.43
2018-07-17T07:08:00.507Z,21.54
2018-07-17T07:09:00.547Z,21.50
2018-07-17T07:10:00.587Z,21.59
2018-07-17T07:11:00.630Z,21.58
2018-07-17T07:12:00.670Z,21.58
2018-07-17T07:13:00.764Z,21.62
2018-07-17T07:14:00.751Z,21.64
2018-07-17T07:15:00.798Z,21.77
2018-07-17T07:16:00.833Z,21.77
2018-07-17T07:17:00.875Z,21.88
2018-07-17T07:18:00.916Z,21.83
2018-07-17T07:19:00.957Z,21.94
2018-07-17T07:20:01.002Z,21.94
2018-07-17T07:21:01.052Z,21.86
2018-07-17T07:22:01.079Z,21.94
2018-07-17T07:23:01.123Z,21.99
2018-07-17T07:24:01.168Z,21.98
2018-07-17T07:25:01.206Z,21.92
2018-07-17T07:26:01.247Z,21.98
2018-07-17T07:27:01.286Z,22.05
2018-07-17T07:28:01.327Z,22.06
2018-07-17T07:29:01.376Z,22.03
2018-07-17T07:30:01.423Z,22.05
2018-07-17T07:31:01.556Z,22.12
2018-07-17T07:32:01.494Z,22.15
2018-07-17T07:33:01.536Z,22.22
2018-07-17T07:34:01.577Z,22.27
2018-07-17T07:35:01.617Z,22.37
2018-07-17T07:36:01.662Z,22.37
2018-07-17T07:37:01.702Z,22.49
2018-07-17T07:38:01.743Z,22.52
2018-07-17T07:39:01.781Z,22.61
2018-07-17T07:40:01.825Z,22.57
2018-07-17T07:41:01.866Z,22.62
2018-07-17T07:42:01.909Z,22.65
2018-07-17T07:43:01.952Z,22.65
2018-07-17T07:44:01.992Z,22.70
2018-07-17T07:45:02.033Z,22.70
2018-07-17T07:46:02.074Z,22.80
2018-07-17T07:47:02.114Z,22.90
2018-07-17T07:48:02.160Z,22.91
2018-07-17T07:49:02.231Z,22.97
2018-07-17T07:50:02.239Z,22.98
2018-07-17T07:51:02.283Z,23.01
2018-07-17T07:52:02.324Z,22.97
2018-07-17T07:53:02.367Z,22.92
2018-07-17T07:54:02.407Z,23.05
2018-07-17T07:55:02.459Z,23.05
2018-07-17T07:56:02.494Z,23.12
2018-07-17T07:57:02.536Z,23.07
2018-07-17T07:58:02.574Z,23.15
2018-07-17T07:59:02.615Z,23.25
2018-07-17T08:00:02.657Z,23.31
2018-07-17T08:01:02.704Z,23.23
2018-07-17T08:02:02.741Z,23.28
2018-07-17T08:03:02.782Z,23.39
2018-07-17T08:04:02.915Z,23.36
2018-07-17T08:05:02.868Z,23.40
2018-07-17T08:06:02.909Z,23.54
2018-07-17T08:07:02.959Z,23.54
2018-07-17T08:08:02.993Z,23.57
2018-07-17T08:09:03.036Z,23.63
2018-07-17T08:10:03.077Z,23.66
2018-07-17T08:11:03.172Z,23.63
2018-07-17T08:12:03.167Z,23.76
2018-07-17T08:13:03.214Z,23.72
2018-07-17T08:14:03.247Z,23.75
2018-07-17T08:15:03.297Z,23.83
2018-07-17T08:16:03.336Z,23.78
2018-07-17T08:17:03.375Z,23.73
2018-07-17T08:18:03.415Z,23.88
2018-07-17T08:19:03.461Z,23.90
2018-07-17T08:20:03.502Z,24.02
2018-07-17T08:21:03.550Z,24.09
2018-07-17T08:22:03.584Z,24.09
2018-07-17T08:23:03.640Z,24.18
2018-07-17T08:24:03.671Z,24.21
2018-07-17T08:25:03.714Z,24.27
2018-07-17T08:26:03.760Z,24.27
2018-07-17T08:27:03.793Z,24.30
2018-07-17T08:28:03.836Z,24.31
2018-07-17T08:29:03.882Z,24.39
2018-07-17T08:30:03.923Z,24.35
2018-07-17T08:31:03.963Z,24.50
2018-07-17T08:32:04.055Z,24.50
2018-07-17T08:33:04.049Z,24.50
2018-07-17T08:34:04.092Z,24.52
2018-07-17T08:35:04.130Z,24.58
2018-07-17T08:36:04.173Z,24.71
2018-07-17T08:37:04.218Z,24.84
2018-07-17T08:38:04.258Z,24.98
2018-07-17T08:39:04.301Z,25.00
2018-07-17T08:40:04.343Z,25.02
2018-07-17T08:41:04.387Z,25.15
2018-07-17T08:42:04.429Z,25.14
2018-07-17T08:43:04.470Z,25.15
2018-07-17T08:44:04.515Z,25.17
2018-07-17T08:45:04.557Z,25.20
2018-07-17T08:46:04.599Z,25.20
2018-07-17T08:47:04.644Z,25.42
2018-07-17T08:48:04.692Z,25.45
2018-07-17T08:49:04.742Z,25.69
2018-07-17T08:50:04.768Z,25.72
2018-07-17T08:51:04.812Z,25.85
2018-07-17T08:52:04.856Z,25.85
2018-07-17T08:53:04.897Z,25.92
2018-07-17T08:54:05.019Z,25.91
2018-07-17T08:55:04.981Z,25.91
2018-07-17T08:56:05.030Z,25.97
2018-07-17T08:57:05.068Z,26.02
2018-07-17T08:58:05.109Z,25.99
2018-07-17T08:59:05.153Z,26.10
2018-07-17T09:00:05.196Z,26.17
2018-07-17T09:01:05.240Z,26.10
2018-07-17T09:02:05.484Z,26.17
2018-07-17T09:03:05.323Z,26.28
2018-07-17T09:04:05.366Z,26.39
2018-07-17T09:05:05.408Z,26.43
2018-07-17T09:06:05.450Z,26.47
2018-07-17T09:07:05.495Z,26.65
2018-07-17T09:08:05.538Z,26.60
2018-07-17T09:09:05.583Z,26.66
2018-07-17T09:10:05.624Z,26.73
2018-07-17T09:11:05.668Z,26.65
2018-07-17T09:12:05.711Z,26.73
2018-07-17T09:13:05.767Z,26.70
2018-07-17T09:14:05.804Z,26.81
2018-07-17T09:15:05.842Z,26.81
2018-07-17T09:16:05.983Z,26.81
2018-07-17T09:17:05.928Z,26.77
2018-07-17T09:18:05.972Z,26.80
2018-07-17T09:19:06.011Z,26.84
2018-07-17T09:20:06.062Z,26.80
2018-07-17T09:21:06.103Z,26.82
2018-07-17T09:22:06.144Z,26.80
2018-07-17T09:23:06.188Z,26.88
2018-07-17T09:24:06.232Z,26.91
2018-07-17T09:25:06.273Z,26.91
2018-07-17T09:26:06.331Z,27.06
2018-07-17T09:27:06.360Z,27.12
2018-07-17T09:28:06.420Z,27.13
2018-07-17T09:29:06.448Z,27.25
2018-07-17T09:30:06.488Z,27.27
2018-07-17T09:31:06.540Z,27.32
2018-07-17T09:32:06.576Z,27.27
2018-07-17T09:33:06.622Z,27.36
2018-07-17T09:34:06.665Z,27.31
2018-07-17T09:35:06.704Z,27.27
2018-07-17T09:36:06.748Z,27.27
2018-07-17T09:37:06.804Z,27.29
2018-07-17T09:38:06.839Z,27.32
2018-07-17T09:39:06.898Z,27.27
2018-07-17T09:40:06.924Z,27.28
2018-07-17T09:41:06.968Z,27.43
2018-07-17T09:42:07.010Z,27.41
2018-07-17T09:43:07.057Z,27.44
2018-07-17T09:44:07.101Z,27.51
2018-07-17T09:45:07.139Z,27.50
2018-07-17T09:46:07.184Z,27.59
2018-07-17T09:47:07.237Z,27.69
2018-07-17T09:48:07.273Z,27.59
2018-07-17T09:49:07.316Z,27.78
2018-07-17T09:50:07.360Z,27.96
2018-07-17T09:51:07.455Z,27.87
2018-07-17T09:52:07.462Z,28.00
2018-07-17T09:53:07.493Z,28.06
2018-07-17T09:54:07.533Z,28.02
2018-07-17T09:55:07.578Z,28.07
2018-07-17T09:56:07.625Z,28.17
2018-07-17T09:57:07.664Z,28.17
2018-07-17T09:58:07.708Z,28.29
2018-07-17T09:59:07.753Z,28.41
2018-07-17T10:00:07.795Z,28.40
2018-07-17T10:01:07.848Z,28.52
2018-07-17T10:02:07.883Z,28.44
2018-07-17T10:03:07.927Z,28.54
2018-07-17T10:04:07.972Z,28.52
2018-07-17T10:05:08.018Z,28.54
2018-07-17T10:06:08.061Z,28.54
2018-07-17T10:07:08.104Z,28.59
2018-07-17T10:08:08.156Z,28.67
2018-07-17T10:09:08.194Z,28.76
2018-07-17T10:10:08.237Z,28.66
2018-07-17T10:11:08.280Z,28.81
2018-07-17T10:12:08.324Z,28.90
2018-07-17T10:13:08.376Z,28.95
2018-07-17T10:14:08.415Z,29.02
2018-07-17T10:15:08.459Z,29.14
2018-07-17T10:16:08.504Z,29.11
2018-07-17T10:17:08.599Z,29.15
2018-07-17T10:18:08.593Z,29.12
2018-07-17T10:19:08.635Z,29.05
2018-07-17T10:20:08.685Z,29.14
2018-07-17T10:21:08.727Z,29.06
2018-07-17T10:22:08.772Z,29.04
2018-07-17T10:23:08.813Z,29.04
2018-07-17T10:24:08.857Z,29.06
2018-07-17T10:25:08.902Z,29.06
2018-07-17T10:26:08.944Z,29.19
2018-07-17T10:27:08.989Z,29.12
2018-07-17T10:28:09.035Z,29.09
2018-07-17T10:29:09.083Z,29.02
2018-07-17T10:30:09.138Z,29.05
2018-07-17T10:31:09.168Z,29.00
2018-07-17T10:32:09.262Z,29.05
2018-07-17T10:33:09.257Z,29.05
2018-07-17T10:34:09.309Z,28.92
2018-07-17T10:35:09.351Z,28.81
2018-07-17T10:36:09.390Z,28.78
2018-07-17T10:37:09.433Z,28.93
2018-07-17T10:38:09.477Z,28.90
2018-07-17T10:39:09.524Z,28.73
2018-07-17T10:40:09.567Z,28.88
2018-07-17T10:41:09.613Z,28.83
2018-07-17T10:42:09.657Z,28.89
2018-07-17T10:43:09.702Z,28.89
2018-07-17T10:44:09.745Z,28.95
2018-07-17T10:45:09.792Z,29.06
2018-07-17T10:46:09.840Z,29.14
2018-07-17T10:47:09.883Z,29.14
2018-07-17T10:48:09.924Z,29.09
2018-07-17T10:49:09.975Z,29.27
2018-07-17T10:50:10.013Z,29.27
2018-07-17T10:51:10.057Z,29.36
2018-07-17T10:52:10.105Z,29.31
2018-07-17T10:53:10.150Z,29.30
2018-07-17T10:54:10.197Z,29.15
2018-07-17T10:55:10.236Z,29.11
2018-07-17T10:56:10.279Z,28.95
2018-07-17T10:57:10.324Z,28.96
2018-07-17T10:58:10.367Z,29.00
2018-07-17T10:59:10.415Z,29.09
2018-07-17T11:00:10.459Z,29.09
2018-07-17T11:01:10.503Z,29.02
2018-07-17T11:02:10.547Z,29.11
2018-07-17T11:03:10.594Z,28.95
2018-07-17T11:04:10.635Z,28.88
2018-07-17T11:05:10.683Z,29.00
2018-07-17T11:06:10.723Z,28.95
2018-07-17T11:07:10.771Z,29.06
2018-07-17T11:08:10.824Z,29.19
2018-07-17T11:09:10.864Z,29.16
2018-07-17T11:10:10.905Z,29.23
2018-07-17T11:11:10.949Z,29.27
2018-07-17T11:12:11.000Z,29.34
2018-07-17T11:13:11.037Z,29.28
2018-07-17T11:14:11.080Z,29.37
2018-07-17T11:15:11.175Z,29.52
2018-07-17T11:16:11.184Z,29.64
2018-07-17T11:17:11.216Z,29.52
2018-07-17T11:18:11.257Z,29.52
2018-07-17T11:19:11.301Z,29.60
2018-07-17T11:20:11.352Z,29.60
2018-07-17T11:21:11.392Z,29.70
2018-07-17T11:22:11.477Z,29.53
2018-07-17T11:23:11.480Z,29.63
2018-07-17T11:24:11.524Z,29.55
2018-07-17T11:25:11.577Z,29.70
2018-07-17T11:26:11.615Z,29.64
2018-07-17T11:27:11.660Z,29.78
2018-07-17T11:28:11.703Z,29.74
2018-07-17T11:29:11.749Z,29.65
2018-07-17T11:30:11.794Z,29.64
2018-07-17T11:31:11.839Z,29.74
2018-07-17T11:32:11.882Z,29.80
2018-07-17T11:33:11.936Z,29.85
2018-07-17T11:34:12.072Z,29.94
2018-07-17T11:35:12.024Z,29.89
2018-07-17T11:36:12.064Z,30.01
2018-07-17T11:37:12.107Z,30.05
2018-07-17T11:38:12.157Z,29.87
2018-07-17T11:39:12.200Z,29.97
2018-07-17T11:40:12.242Z,29.89
2018-07-17T11:41:12.289Z,30.00
2018-07-17T11:42:12.516Z,30.13
2018-07-17T11:43:12.629Z,30.15
2018-07-17T11:44:12.420Z,30.11
2018-07-17T11:45:12.465Z,30.15
2018-07-17T11:46:12.514Z,30.23
2018-07-17T11:47:12.557Z,30.23
2018-07-17T11:48:12.599Z,30.37
2018-07-17T11:49:12.645Z,30.42
2018-07-17T11:50:12.690Z,30.42
2018-07-17T11:51:12.736Z,30.37
2018-07-17T11:52:12.780Z,30.55
2018-07-17T11:53:12.877Z,30.35
2018-07-17T11:54:12.870Z,30.42
2018-07-17T11:55:12.915Z,30.51
2018-07-17T11:56:12.960Z,30.39
2018-07-17T11:57:13.007Z,30.54
2018-07-17T11:58:13.057Z,30.51
2018-07-17T11:59:13.255Z,30.43
2018-07-17T12:00:13.145Z,30.39
2018-07-17T12:01:13.186Z,30.49
2018-07-17T12:02:13.234Z,30.45
2018-07-17T12:03:13.281Z,30.26
2018-07-17T12:04:13.324Z,30.23
2018-07-17T12:05:13.372Z,30.29
2018-07-17T12:06:13.411Z,30.27
2018-07-17T12:07:13.469Z,30.24
2018-07-17T12:08:13.506Z,30.26
2018-07-17T12:09:13.548Z,30.37
2018-07-17T12:10:13.593Z,30.38
2018-07-17T12:11:13.637Z,30.27
2018-07-17T12:12:13.689Z,30.35
2018-07-17T12:13:13.730Z,30.35
2018-07-17T12:14:13.781Z,30.53
2018-07-17T12:15:13.820Z,30.53
2018-07-17T12:16:13.863Z,30.51
2018-07-17T12:17:13.910Z,30.46
2018-07-17T12:18:13.954Z,30.37
2018-07-17T12:19:14.004Z,30.37
2018-07-17T12:20:14.113Z,30.43
2018-07-17T12:21:14.100Z,30.34
2018-07-17T12:22:14.139Z,30.37
2018-07-17T12:23:14.181Z,30.37
2018-07-17T12:24:14.230Z,30.54
2018-07-17T12:25:14.270Z,30.64
2018-07-17T12:26:14.319Z,30.42
2018-07-17T12:27:14.363Z,30.49
2018-07-17T12:28:14.417Z,30.46
2018-07-17T12:29:14.454Z,30.60
2018-07-17T12:30:14.499Z,30.42
2018-07-17T12:31:14.544Z,30.73
2018-07-17T12:32:14.594Z,30.82
2018-07-17T12:33:14.636Z,30.80
2018-07-17T12:34:14.682Z,30.82
2018-07-17T12:35:14.733Z,30.89
2018-07-17T12:36:14.775Z,30.86
2018-07-17T12:37:14.824Z,31.01
2018-07-17T12:38:14.863Z,31.04
2018-07-17T12:39:14.913Z,30.95
2018-07-17T12:40:14.955Z,31.09
2018-07-17T12:41:15.006Z,31.20
2018-07-17T12:42:15.044Z,31.31
2018-07-17T12:43:15.090Z,31.41
2018-07-17T12:44:15.241Z,31.36
2018-07-17T12:45:15.188Z,31.36
2018-07-17T12:46:15.229Z,31.38
2018-07-17T12:47:15.274Z,31.29
2018-07-17T12:48:15.321Z,31.09
2018-07-17T12:49:15.366Z,31.10
2018-07-17T12:50:15.416Z,31.02
2018-07-17T12:51:15.457Z,30.98
2018-07-17T12:52:15.504Z,30.92
2018-07-17T12:53:15.551Z,31.01